createdAt,value
2023-03-28T00:00:46.480Z,1011.10
2023-03-28T00:01:46.462Z,1011.09
2023-03-28T00:02:46.555Z,1011.14
2023-03-28T00:03:46.483Z,1011.15
2023-03-28T00:04:46.431Z,1011.11
2023-03-28T00:05:46.455Z,1011.11
2023-03-28T00:06:46.406Z,1011.14
2023-03-28T00:07:46.400Z,1011.08
2023-03-28T00:08:46.399Z,1011.13
2023-03-28T00:09:46.373Z,1011.17
2023-03-28T00:10:46.367Z,1011.08
2023-03-28T00:11:46.351Z,1011.16
2023-03-28T00:12:46.343Z,1011.10
2023-03-28T00:13:46.333Z,1010.99
2023-03-28T00:14:46.317Z,1010.99
2023-03-28T00:15:46.355Z,1011.04
2023-03-28T00:16:46.300Z,1010.96
2023-03-28T00:17:46.325Z,1010.92
2023-03-28T00:18:46.270Z,1010.91
2023-03-28T00:19:46.269Z,1010.91
2023-03-28T00:20:46.249Z,1010.83
2023-03-28T00:21:46.240Z,1010.95
2023-03-28T00:22:46.229Z,1011.03
2023-03-28T00:23:46.220Z,1011.02
2023-03-28T00:24:46.207Z,1010.93
2023-03-28T00:25:46.228Z,1011.06
2023-03-28T00:26:46.180Z,1011.13
2023-03-28T00:27:46.175Z,1011.17
2023-03-28T00:28:46.176Z,1011.20
2023-03-28T00:29:46.146Z,1011.18
2023-03-28T00:30:46.135Z,1011.22
2023-03-28T00:31:46.246Z,1011.26
2023-03-28T00:32:46.124Z,1011.24
2023-03-28T00:33:46.106Z,1011.26
2023-03-28T00:34:46.090Z,1011.23
2023-03-28T00:35:46.124Z,1011.26
2023-03-28T00:36:46.075Z,1011.40
2023-03-28T00:37:46.094Z,1011.35
2023-03-28T00:38:46.067Z,1011.43
2023-03-28T00:39:46.032Z,1011.39
2023-03-28T00:40:46.025Z,1011.41
2023-03-28T00:41:46.012Z,1011.50
2023-03-28T00:42:45.999Z,1011.47
2023-03-28T00:43:45.990Z,1011.52
2023-03-28T00:44:45.982Z,1011.47
2023-03-28T00:45:48.809Z,1011.53
2023-03-28T00:46:45.970Z,1011.57
2023-03-28T00:47:46.086Z,1011.57
2023-03-28T00:48:45.940Z,1011.49
2023-03-28T00:49:45.921Z,1011.48
2023-03-28T00:50:45.923Z,1011.54
2023-03-28T00:51:45.897Z,1011.52
2023-03-28T00:52:45.886Z,1011.61
2023-03-28T00:53:45.874Z,1011.61
2023-03-28T00:54:45.866Z,1011.52
2023-03-28T00:55:45.850Z,1011.56
2023-03-28T00:56:45.868Z,1011.56
2023-03-28T00:57:45.827Z,1011.63
2023-03-28T00:58:45.821Z,1011.52
2023-03-28T00:59:45.809Z,1011.61
2023-03-28T01:00:45.791Z,1011.63
2023-03-28T01:01:45.854Z,1011.69
2023-03-28T01:02:46.003Z,1011.64
2023-03-28T01:03:45.853Z,1011.65
2023-03-28T01:04:45.745Z,1011.62
2023-03-28T01:05:45.742Z,1011.67
2023-03-28T01:06:45.718Z,1011.78
2023-03-28T01:07:45.709Z,1011.63
2023-03-28T01:08:45.702Z,1011.71
2023-03-28T01:09:45.700Z,1011.76
2023-03-28T01:10:45.690Z,1011.78
2023-03-28T01:11:45.661Z,1011.74
2023-03-28T01:12:45.652Z,1011.74
2023-03-28T01:13:45.652Z,1011.77
2023-03-28T01:14:45.637Z,1011.80
2023-03-28T01:15:45.659Z,1011.83
2023-03-28T01:16:45.604Z,1011.80
2023-03-28T01:17:45.626Z,1011.79
2023-03-28T01:18:45.581Z,1011.75
2023-03-28T01:19:45.592Z,1011.84
2023-03-28T01:20:45.561Z,1011.84
2023-03-28T01:21:45.549Z,1011.87
2023-03-28T01:22:56.315Z,1011.83
2023-03-28T01:23:45.529Z,1011.82
2023-03-28T01:24:45.512Z,1011.86
2023-03-28T01:25:45.502Z,1011.92
2023-03-28T01:26:45.493Z,1011.88
2023-03-28T01:27:45.477Z,1011.94
2023-03-28T01:28:45.478Z,1011.99
2023-03-28T01:29:45.461Z,1012.00
2023-03-28T01:30:45.442Z,1011.96
2023-03-28T01:31:45.523Z,1011.97
2023-03-28T01:32:45.474Z,1012.06
2023-03-28T01:33:45.420Z,1012.02
2023-03-28T01:34:45.403Z,1012.09
2023-03-28T01:35:45.443Z,1012.03
2023-03-28T01:36:45.388Z,1012.03
2023-03-28T01:37:45.364Z,1012.00
2023-03-28T01:38:45.354Z,1012.11
2023-03-28T01:39:45.346Z,1012.05
2023-03-28T01:40:45.331Z,1012.11
2023-03-28T01:41:45.322Z,1012.14
2023-03-28T01:42:45.307Z,1012.18
2023-03-28T01:43:45.293Z,1012.18
2023-03-28T01:44:45.291Z,1012.19
2023-03-28T01:45:45.301Z,1012.20
2023-03-28T01:46:45.258Z,1012.20
2023-03-28T01:47:45.301Z,1012.18
2023-03-28T01:48:45.237Z,1012.21
2023-03-28T01:49:45.227Z,1012.23
2023-03-28T01:50:45.228Z,1012.17
2023-03-28T01:51:45.230Z,1012.20
2023-03-28T01:52:45.194Z,1012.25
2023-03-28T01:53:45.187Z,1012.22
2023-03-28T01:54:45.167Z,1012.26
2023-03-28T01:55:45.165Z,1012.30
2023-03-28T01:56:45.227Z,1012.34
2023-03-28T01:57:45.171Z,1012.26
2023-03-28T01:58:45.124Z,1012.34
2023-03-28T01:59:45.110Z,1012.38
2023-03-28T02:00:45.123Z,1012.44
2023-03-28T02:01:45.093Z,1012.41
2023-03-28T02:02:45.176Z,1012.45
2023-03-28T02:03:45.065Z,1012.40
2023-03-28T02:04:45.056Z,1012.47
2023-03-28T02:05:45.052Z,1012.51
2023-03-28T02:06:45.031Z,1012.49
2023-03-28T02:07:45.045Z,1012.48
2023-03-28T02:08:45.014Z,1012.55
2023-03-28T02:09:45.009Z,1012.60
2023-03-28T02:10:44.991Z,1012.57
2023-03-28T02:11:44.976Z,1012.56
2023-03-28T02:12:44.966Z,1012.55
2023-03-28T02:13:44.980Z,1012.52
2023-03-28T02:14:44.948Z,1012.61
2023-03-28T02:15:44.940Z,1012.60
2023-03-28T02:16:44.994Z,1012.54
2023-03-28T02:17:44.938Z,1012.59
2023-03-28T02:18:44.914Z,1012.52
2023-03-28T02:19:44.894Z,1012.56
2023-03-28T02:20:44.878Z,1012.59
2023-03-28T02:21:44.868Z,1012.58
2023-03-28T02:22:44.856Z,1012.59
2023-03-28T02:23:44.869Z,1012.55
2023-03-28T02:24:44.839Z,1012.60
2023-03-28T02:25:44.824Z,1012.59
2023-03-28T02:26:44.821Z,1012.65
2023-03-28T02:27:44.818Z,1012.62
2023-03-28T02:28:44.813Z,1012.65
2023-03-28T02:29:44.786Z,1012.69
2023-03-28T02:30:44.772Z,1012.67
2023-03-28T02:31:44.794Z,1012.65
2023-03-28T02:32:44.774Z,1012.68
2023-03-28T02:33:44.744Z,1012.65
2023-03-28T02:34:44.734Z,1012.62
2023-03-28T02:35:44.750Z,1012.60
2023-03-28T02:36:44.702Z,1012.71
2023-03-28T02:37:44.743Z,1012.66
2023-03-28T02:38:44.677Z,1012.67
2023-03-28T02:39:44.707Z,1012.57
2023-03-28T02:40:44.662Z,1012.65
2023-03-28T02:41:44.646Z,1012.71
2023-03-28T02:42:44.641Z,1012.66
2023-03-28T02:43:44.628Z,1012.66
2023-03-28T02:44:44.610Z,1012.65
2023-03-28T02:45:44.630Z,1012.72
2023-03-28T02:46:44.594Z,1012.70
2023-03-28T02:47:44.618Z,1012.71
2023-03-28T02:48:44.568Z,1012.77
2023-03-28T02:49:50.284Z,1012.81
2023-03-28T02:50:44.542Z,1012.72
2023-03-28T02:51:44.530Z,1012.77
2023-03-28T02:52:44.523Z,1012.72
2023-03-28T02:53:44.602Z,1012.78
2023-03-28T02:54:44.499Z,1012.83
2023-03-28T02:55:44.517Z,1012.88
2023-03-28T02:56:44.514Z,1012.82
2023-03-28T02:57:44.478Z,1012.80
2023-03-28T02:58:44.453Z,1012.84
2023-03-28T02:59:44.448Z,1012.89
2023-03-28T03:00:44.434Z,1012.93
2023-03-28T03:01:44.508Z,1012.91
2023-03-28T03:02:44.489Z,1012.93
2023-03-28T03:03:46.436Z,1012.95
2023-03-28T03:04:44.395Z,1012.98
2023-03-28T03:05:44.382Z,1012.97
2023-03-28T03:06:44.373Z,1012.96
2023-03-28T03:07:44.379Z,1013.02
2023-03-28T03:08:44.360Z,1013.02
2023-03-28T03:09:45.838Z,1013.03
2023-03-28T03:10:44.319Z,1013.07
2023-03-28T03:11:46.337Z,1013.07
2023-03-28T03:12:44.313Z,1013.05
2023-03-28T03:13:44.295Z,1013.11
2023-03-28T03:14:44.298Z,1013.13
2023-03-28T03:15:44.345Z,1013.14
2023-03-28T03:16:44.253Z,1013.17
2023-03-28T03:17:44.298Z,1013.19
2023-03-28T03:18:44.234Z,1013.15
2023-03-28T03:19:44.218Z,1013.22
2023-03-28T03:20:44.205Z,1013.22
2023-03-28T03:21:44.192Z,1013.20
2023-03-28T03:22:46.199Z,1013.30
2023-03-28T03:23:44.180Z,1013.26
2023-03-28T03:24:44.159Z,1013.33
2023-03-28T03:25:44.154Z,1013.25
2023-03-28T03:26:44.145Z,1013.30
2023-03-28T03:27:44.159Z,1013.27
2023-03-28T03:28:44.127Z,1013.29
2023-03-28T03:29:44.101Z,1013.32
2023-03-28T03:30:44.088Z,1013.28
2023-03-28T03:31:44.104Z,1013.28
2023-03-28T03:32:44.213Z,1013.37
2023-03-28T03:33:44.054Z,1013.37
2023-03-28T03:34:44.090Z,1013.31
2023-03-28T03:35:44.048Z,1013.35
2023-03-28T03:36:44.057Z,1013.47
2023-03-28T03:37:44.008Z,1013.40
2023-03-28T03:38:44.098Z,1013.44
2023-03-28T03:39:43.996Z,1013.47
2023-03-28T03:40:44.000Z,1013.46
2023-03-28T03:41:43.967Z,1013.47
2023-03-28T03:42:43.990Z,1013.54
2023-03-28T03:43:46.647Z,1013.60
2023-03-28T03:44:43.962Z,1013.56
2023-03-28T03:45:43.932Z,1013.59
2023-03-28T03:46:44.054Z,1013.56
2023-03-28T03:47:43.949Z,1013.56
2023-03-28T03:48:50.105Z,1013.61
2023-03-28T03:49:43.881Z,1013.66
2023-03-28T03:50:43.924Z,1013.63
2023-03-28T03:51:43.862Z,1013.64
2023-03-28T03:52:43.847Z,1013.62
2023-03-28T03:53:43.837Z,1013.72
2023-03-28T03:54:43.853Z,1013.72
2023-03-28T03:55:43.807Z,1013.66
2023-03-28T03:56:43.896Z,1013.69
2023-03-28T03:57:43.781Z,1013.70
2023-03-28T03:58:43.768Z,1013.66
2023-03-28T03:59:43.805Z,1013.71
2023-03-28T04:00:43.775Z,1013.62
2023-03-28T04:01:43.769Z,1013.67
2023-03-28T04:02:43.895Z,1013.72
2023-03-28T04:03:43.761Z,1013.85
2023-03-28T04:04:43.728Z,1013.77
2023-03-28T04:05:43.693Z,1013.84
2023-03-28T04:06:43.708Z,1013.84
2023-03-28T04:07:43.671Z,1013.83
2023-03-28T04:08:43.672Z,1013.73
2023-03-28T04:09:43.644Z,1013.72
2023-03-28T04:10:45.051Z,1013.80
2023-03-28T04:11:43.623Z,1013.83
2023-03-28T04:12:43.682Z,1013.80
2023-03-28T04:13:43.598Z,1013.83
2023-03-28T04:14:43.595Z,1013.88
2023-03-28T04:15:43.651Z,1013.95
2023-03-28T04:16:43.629Z,1013.92
2023-03-28T04:17:43.596Z,1013.99
2023-03-28T04:18:43.578Z,1013.96
2023-03-28T04:19:43.538Z,1014.06
2023-03-28T04:20:43.552Z,1014.04
2023-03-28T04:21:43.506Z,1013.99
2023-03-28T04:22:46.238Z,1014.08
2023-03-28T04:23:43.639Z,1014.04
2023-03-28T04:24:43.524Z,1014.07
2023-03-28T04:25:43.470Z,1014.16
2023-03-28T04:26:43.463Z,1014.13
2023-03-28T04:27:43.444Z,1014.17
2023-03-28T04:28:43.444Z,1014.18
2023-03-28T04:29:43.420Z,1014.23
2023-03-28T04:30:43.475Z,1014.17
2023-03-28T04:31:45.471Z,1014.18
2023-03-28T04:32:43.463Z,1014.22
2023-03-28T04:33:43.383Z,1014.29
2023-03-28T04:34:43.366Z,1014.29
2023-03-28T04:35:45.391Z,1014.40
2023-03-28T04:36:45.339Z,1014.32
2023-03-28T04:37:43.336Z,1014.41
2023-03-28T04:38:43.320Z,1014.40
2023-03-28T04:39:43.307Z,1014.48
2023-03-28T04:40:43.299Z,1014.44
2023-03-28T04:41:43.337Z,1014.46
2023-03-28T04:42:43.277Z,1014.52
2023-03-28T04:43:45.264Z,1014.54
2023-03-28T04:44:43.259Z,1014.59
2023-03-28T04:45:45.270Z,1014.59
2023-03-28T04:46:43.234Z,1014.57
2023-03-28T04:47:43.293Z,1014.56
2023-03-28T04:48:43.212Z,1014.60
2023-03-28T04:49:45.197Z,1014.57
2023-03-28T04:50:43.201Z,1014.62
2023-03-28T04:51:43.191Z,1014.58
2023-03-28T04:52:43.161Z,1014.63
2023-03-28T04:53:43.154Z,1014.61
2023-03-28T04:54:43.139Z,1014.64
2023-03-28T04:55:43.127Z,1014.66
2023-03-28T04:56:43.195Z,1014.63
2023-03-28T04:57:43.106Z,1014.67
2023-03-28T04:58:43.116Z,1014.74
2023-03-28T04:59:43.082Z,1014.74
2023-03-28T05:00:45.072Z,1014.76
2023-03-28T05:01:43.195Z,1014.78
2023-03-28T05:02:43.098Z,1014.81
2023-03-28T05:03:43.091Z,1014.83
2023-03-28T05:04:43.023Z,1014.79
2023-03-28T05:05:45.015Z,1014.85
2023-03-28T05:06:43.005Z,1014.90
2023-03-28T05:07:42.998Z,1014.88
2023-03-28T05:08:42.988Z,1014.84
2023-03-28T05:09:42.970Z,1014.90
2023-03-28T05:10:42.953Z,1014.83
2023-03-28T05:11:42.951Z,1014.89
2023-03-28T05:12:42.937Z,1014.90
2023-03-28T05:13:42.928Z,1014.90
2023-03-28T05:14:42.952Z,1014.95
2023-03-28T05:15:42.898Z,1014.99
2023-03-28T05:16:42.931Z,1014.96
2023-03-28T05:17:42.937Z,1015.04
2023-03-28T05:18:42.866Z,1015.01
2023-03-28T05:19:42.876Z,1015.09
2023-03-28T05:20:42.835Z,1015.18
2023-03-28T05:21:42.831Z,1015.10
2023-03-28T05:22:42.819Z,1015.13
2023-03-28T05:23:42.808Z,1015.11
2023-03-28T05:24:42.794Z,1015.08
2023-03-28T05:25:42.788Z,1015.11
2023-03-28T05:26:42.776Z,1015.04
2023-03-28T05:27:42.758Z,1015.08
2023-03-28T05:28:42.746Z,1015.10
2023-03-28T05:29:42.739Z,1015.22
2023-03-28T05:30:42.726Z,1015.20
2023-03-28T05:31:42.725Z,1015.22
2023-03-28T05:32:42.777Z,1015.23
2023-03-28T05:33:42.692Z,1015.26
2023-03-28T05:34:42.682Z,1015.26
2023-03-28T05:35:42.731Z,1015.26
2023-03-28T05:36:42.662Z,1015.29
2023-03-28T05:37:44.771Z,1015.25
2023-03-28T05:38:42.645Z,1015.28
2023-03-28T05:39:42.632Z,1015.31
2023-03-28T05:40:42.629Z,1015.28
2023-03-28T05:41:42.601Z,1015.32
2023-03-28T05:42:42.594Z,1015.35
2023-03-28T05:43:42.589Z,1015.36
2023-03-28T05:44:42.567Z,1015.42
2023-03-28T05:45:42.623Z,1015.41
2023-03-28T05:46:42.544Z,1015.45
2023-03-28T05:47:42.545Z,1015.43
2023-03-28T05:48:42.536Z,1015.51
2023-03-28T05:49:42.511Z,1015.56
2023-03-28T05:50:42.505Z,1015.58
2023-03-28T05:51:42.516Z,1015.58
2023-03-28T05:52:42.488Z,1015.54
2023-03-28T05:53:42.464Z,1015.63
2023-03-28T05:54:50.390Z,1015.58
2023-03-28T05:55:42.457Z,1015.58
2023-03-28T05:56:42.500Z,1015.63
2023-03-28T05:57:42.428Z,1015.67
2023-03-28T05:58:42.415Z,1015.66
2023-03-28T05:59:42.401Z,1015.70
2023-03-28T06:00:42.394Z,1015.71
2023-03-28T06:01:43.135Z,1015.68
2023-03-28T06:02:42.477Z,1015.66
2023-03-28T06:03:42.386Z,1015.76
2023-03-28T06:04:42.387Z,1015.72
2023-03-28T06:05:42.331Z,1015.75
2023-03-28T06:06:42.317Z,1015.74
2023-03-28T06:07:43.146Z,1015.80
2023-03-28T06:08:42.517Z,1015.87
2023-03-28T06:09:42.286Z,1015.85
2023-03-28T06:10:42.303Z,1015.86
2023-03-28T06:11:42.277Z,1015.84
2023-03-28T06:12:42.259Z,1015.88
2023-03-28T06:13:42.237Z,1015.96
2023-03-28T06:14:42.230Z,1015.87
2023-03-28T06:15:42.218Z,1015.90
2023-03-28T06:16:42.232Z,1015.86
2023-03-28T06:17:42.266Z,1015.97
2023-03-28T06:18:42.181Z,1015.94
2023-03-28T06:19:42.244Z,1015.88
2023-03-28T06:20:42.158Z,1015.97
2023-03-28T06:21:42.151Z,1015.88
2023-03-28T06:22:42.139Z,1015.98
2023-03-28T06:23:42.152Z,1015.98
2023-03-28T06:24:42.117Z,1015.99
2023-03-28T06:25:42.107Z,1015.99
2023-03-28T06:26:42.089Z,1016.01
2023-03-28T06:27:42.087Z,1016.06
2023-03-28T06:28:42.070Z,1016.01
2023-03-28T06:29:42.058Z,1016.03
2023-03-28T06:30:42.057Z,1016.03
2023-03-28T06:31:42.076Z,1016.09
2023-03-28T06:32:42.038Z,1016.07
2023-03-28T06:33:42.020Z,1016.10
2023-03-28T06:34:41.999Z,1016.05
2023-03-28T06:35:42.036Z,1016.12
2023-03-28T06:36:41.984Z,1016.14
2023-03-28T06:37:41.995Z,1016.11
2023-03-28T06:38:41.976Z,1016.10
2023-03-28T06:39:41.978Z,1016.14
2023-03-28T06:40:41.953Z,1016.14
2023-03-28T06:41:41.929Z,1016.10
2023-03-28T06:42:41.918Z,1016.15
2023-03-28T06:43:42.005Z,1016.18
2023-03-28T06:44:41.897Z,1016.19
2023-03-28T06:45:41.947Z,1016.19
2023-03-28T06:46:41.899Z,1016.22
2023-03-28T06:47:41.857Z,1016.24
2023-03-28T06:48:41.850Z,1016.21
2023-03-28T06:49:41.889Z,1016.29
2023-03-28T06:50:41.827Z,1016.33
2023-03-28T06:51:41.828Z,1016.24
2023-03-28T06:52:41.807Z,1016.31
2023-03-28T06:53:41.790Z,1016.36
2023-03-28T06:54:41.785Z,1016.31
2023-03-28T06:55:41.796Z,1016.34
2023-03-28T06:56:41.793Z,1016.28
2023-03-28T06:57:41.750Z,1016.40
2023-03-28T06:58:41.743Z,1016.37
2023-03-28T06:59:41.728Z,1016.30
2023-03-28T07:00:41.713Z,1016.33
2023-03-28T07:01:41.741Z,1016.36
2023-03-28T07:02:41.810Z,1016.43
2023-03-28T07:03:41.778Z,1016.39
2023-03-28T07:04:41.676Z,1016.42
2023-03-28T07:05:41.666Z,1016.40
2023-03-28T07:06:41.644Z,1016.42
2023-03-28T07:07:41.635Z,1016.48
2023-03-28T07:08:41.625Z,1016.44
2023-03-28T07:09:41.636Z,1016.39
2023-03-28T07:10:41.618Z,1016.42
2023-03-28T07:11:41.685Z,1016.45
2023-03-28T07:12:41.605Z,1016.50
2023-03-28T07:13:41.596Z,1016.47
2023-03-28T07:14:41.574Z,1016.50
2023-03-28T07:15:41.618Z,1016.49
2023-03-28T07:16:41.638Z,1016.48
2023-03-28T07:17:41.559Z,1016.50
2023-03-28T07:18:41.512Z,1016.51
2023-03-28T07:19:41.500Z,1016.58
2023-03-28T07:20:41.653Z,1016.56
2023-03-28T07:21:41.481Z,1016.57
2023-03-28T07:22:41.470Z,1016.58
2023-03-28T07:23:41.458Z,1016.60
2023-03-28T07:24:41.443Z,1016.64
2023-03-28T07:25:41.432Z,1016.63
2023-03-28T07:26:41.424Z,1016.66
2023-03-28T07:27:41.439Z,1016.61
2023-03-28T07:28:41.396Z,1016.66
2023-03-28T07:29:41.400Z,1016.64
2023-03-28T07:30:41.391Z,1016.68
2023-03-28T07:31:41.452Z,1016.76
2023-03-28T07:32:53.017Z,1016.73
2023-03-28T07:33:41.375Z,1016.72
2023-03-28T07:34:41.333Z,1016.72
2023-03-28T07:35:41.333Z,1016.63
2023-03-28T07:36:41.307Z,1016.73
2023-03-28T07:37:41.299Z,1016.71
2023-03-28T07:38:41.292Z,1016.68
2023-03-28T07:39:41.278Z,1016.75
2023-03-28T07:40:41.260Z,1016.79
2023-03-28T07:41:41.255Z,1016.81
2023-03-28T07:42:41.246Z,1016.82
2023-03-28T07:43:41.322Z,1016.80
2023-03-28T07:44:42.484Z,1016.89
2023-03-28T07:45:41.253Z,1016.80
2023-03-28T07:46:41.194Z,1016.90
2023-03-28T07:47:41.245Z,1016.83
2023-03-28T07:48:41.170Z,1016.90
2023-03-28T07:49:41.236Z,1016.85
2023-03-28T07:50:41.153Z,1016.97
2023-03-28T07:51:41.137Z,1016.95
2023-03-28T07:52:41.129Z,1016.96
2023-03-28T07:53:41.119Z,1016.99
2023-03-28T07:54:41.138Z,1017.01
2023-03-28T07:55:54.423Z,1017.02
2023-03-28T07:56:41.171Z,1017.01
2023-03-28T07:57:41.073Z,1017.03
2023-03-28T07:58:41.071Z,1017.01
2023-03-28T07:59:41.080Z,1016.95
2023-03-28T08:00:41.047Z,1017.02
2023-03-28T08:01:41.030Z,1017.06
2023-03-28T08:02:44.694Z,1017.08
2023-03-28T08:03:41.043Z,1017.03
2023-03-28T08:04:40.987Z,1017.09
2023-03-28T08:05:41.009Z,1017.07
2023-03-28T08:06:40.976Z,1017.06
2023-03-28T08:07:40.952Z,1017.08
2023-03-28T08:08:40.940Z,1017.09
2023-03-28T08:09:40.942Z,1017.01
2023-03-28T08:10:40.933Z,1017.05
2023-03-28T08:11:40.914Z,1017.11
2023-03-28T08:12:40.898Z,1017.16
2023-03-28T08:13:40.905Z,1017.20
2023-03-28T08:14:40.882Z,1017.27
2023-03-28T08:15:40.939Z,1017.20
2023-03-28T08:16:40.852Z,1017.26
2023-03-28T08:17:40.927Z,1017.20
2023-03-28T08:18:40.830Z,1017.21
2023-03-28T08:19:40.817Z,1017.26
2023-03-28T08:20:40.813Z,1017.27
2023-03-28T08:21:40.845Z,1017.25
2023-03-28T08:22:40.791Z,1017.27
2023-03-28T08:23:40.778Z,1017.32
2023-03-28T08:24:40.765Z,1017.25
2023-03-28T08:25:40.749Z,1017.33
2023-03-28T08:26:40.737Z,1017.26
2023-03-28T08:27:40.743Z,1017.28
2023-03-28T08:28:40.716Z,1017.29
2023-03-28T08:29:40.704Z,1017.30
2023-03-28T08:30:40.697Z,1017.34
2023-03-28T08:31:40.749Z,1017.37
2023-03-28T08:32:40.735Z,1017.27
2023-03-28T08:33:40.663Z,1017.24
2023-03-28T08:34:40.675Z,1017.23
2023-03-28T08:35:40.672Z,1017.32
2023-03-28T08:36:40.624Z,1017.38
2023-03-28T08:37:40.613Z,1017.25
2023-03-28T08:38:40.601Z,1017.18
2023-03-28T08:39:40.592Z,1017.29
2023-03-28T08:40:40.591Z,1017.29
2023-03-28T08:41:40.577Z,1017.34
2023-03-28T08:42:40.552Z,1017.30
2023-03-28T08:43:40.563Z,1017.32
2023-03-28T08:44:40.546Z,1017.30
2023-03-28T08:45:40.520Z,1017.33
2023-03-28T08:46:40.558Z,1017.25
2023-03-28T08:47:40.568Z,1017.33
2023-03-28T08:48:40.569Z,1017.35
2023-03-28T08:49:40.480Z,1017.36
2023-03-28T08:50:40.470Z,1017.44
2023-03-28T08:51:40.463Z,1017.45
2023-03-28T08:52:40.440Z,1017.42
2023-03-28T08:53:40.431Z,1017.34
2023-03-28T08:54:40.422Z,1017.47
2023-03-28T08:55:40.425Z,1017.35
2023-03-28T08:56:41.052Z,1017.47
2023-03-28T08:57:40.384Z,1017.48
2023-03-28T08:58:40.374Z,1017.44
2023-03-28T08:59:40.359Z,1017.44
2023-03-28T09:00:40.378Z,1017.50
2023-03-28T09:01:40.357Z,1017.54
2023-03-28T09:02:40.382Z,1017.60
2023-03-28T09:03:40.488Z,1017.57
2023-03-28T09:04:40.311Z,1017.52
2023-03-28T09:05:40.303Z,1017.66
2023-03-28T09:06:40.284Z,1017.62
2023-03-28T09:07:40.324Z,1017.57
2023-03-28T09:08:40.262Z,1017.64
2023-03-28T09:09:40.259Z,1017.63
2023-03-28T09:10:40.248Z,1017.62
2023-03-28T09:11:40.225Z,1017.69
2023-03-28T09:12:40.220Z,1017.68
2023-03-28T09:13:40.210Z,1017.77
2023-03-28T09:14:40.194Z,1017.72
2023-03-28T09:15:40.189Z,1017.75
2023-03-28T09:16:40.218Z,1017.77
2023-03-28T09:17:40.174Z,1017.76
2023-03-28T09:18:40.152Z,1017.77
2023-03-28T09:19:47.922Z,1017.78
2023-03-28T09:20:42.632Z,1017.78
2023-03-28T09:21:40.112Z,1017.75
2023-03-28T09:22:40.108Z,1017.74
2023-03-28T09:23:40.096Z,1017.83
2023-03-28T09:24:40.080Z,1017.77
2023-03-28T09:25:40.071Z,1017.78
2023-03-28T09:26:40.063Z,1017.72
2023-03-28T09:27:40.327Z,1017.81
2023-03-28T09:28:40.042Z,1017.85
2023-03-28T09:29:40.050Z,1017.71
2023-03-28T09:30:40.024Z,1017.73
2023-03-28T09:31:40.094Z,1017.80
2023-03-28T09:32:40.031Z,1017.84
2023-03-28T09:33:39.987Z,1017.77
2023-03-28T09:34:39.975Z,1017.84
2023-03-28T09:35:40.055Z,1017.99
2023-03-28T09:36:48.385Z,1017.86
2023-03-28T09:37:39.934Z,1017.81
2023-03-28T09:38:39.925Z,1017.87
2023-03-28T09:39:39.920Z,1017.80
2023-03-28T09:40:39.902Z,1017.92
2023-03-28T09:41:39.894Z,1017.91
2023-03-28T09:42:39.877Z,1017.93
2023-03-28T09:43:39.873Z,1017.86
2023-03-28T09:44:52.993Z,1017.86
2023-03-28T09:45:39.918Z,1017.94
2023-03-28T09:46:39.840Z,1017.92
2023-03-28T09:47:39.874Z,1017.97
2023-03-28T09:48:39.906Z,1018.07
2023-03-28T09:49:39.802Z,1017.97
2023-03-28T09:50:39.787Z,1018.06
2023-03-28T09:51:39.832Z,1018.00
2023-03-28T09:52:39.770Z,1018.07
2023-03-28T09:53:39.758Z,1018.08
2023-03-28T09:54:39.746Z,1018.03
2023-03-28T09:55:39.730Z,1018.13
2023-03-28T09:56:39.760Z,1018.08
2023-03-28T09:57:39.710Z,1017.98
2023-03-28T09:58:39.700Z,1018.01
2023-03-28T09:59:39.685Z,1018.00
2023-03-28T10:00:39.677Z,1018.04
2023-03-28T10:01:39.682Z,1018.17
2023-03-28T10:02:39.762Z,1018.12
2023-03-28T10:03:39.644Z,1018.03
2023-03-28T10:04:39.772Z,1018.06
2023-03-28T10:05:39.619Z,1018.09
2023-03-28T10:06:39.622Z,1018.04
2023-03-28T10:07:39.618Z,1018.09
2023-03-28T10:08:39.588Z,1018.09
2023-03-28T10:09:39.576Z,1018.12
2023-03-28T10:10:39.569Z,1018.11
2023-03-28T10:11:39.564Z,1018.10
2023-03-28T10:12:39.539Z,1018.05
2023-03-28T10:13:39.533Z,1018.09
2023-03-28T10:14:39.519Z,1018.11
2023-03-28T10:15:39.555Z,1018.09
2023-03-28T10:16:39.495Z,1018.11
2023-03-28T10:17:39.505Z,1018.08
2023-03-28T10:18:39.472Z,1018.07
2023-03-28T10:19:39.462Z,1018.07
2023-03-28T10:20:39.454Z,1018.11
2023-03-28T10:21:39.439Z,1018.02
2023-03-28T10:22:39.428Z,1018.13
2023-03-28T10:23:39.467Z,1018.09
2023-03-28T10:24:39.413Z,1018.15
2023-03-28T10:25:39.395Z,1018.16
2023-03-28T10:26:39.383Z,1018.14
2023-03-28T10:27:39.377Z,1018.13
2023-03-28T10:28:39.372Z,1018.09
2023-03-28T10:29:39.346Z,1018.12
2023-03-28T10:30:39.336Z,1018.20
2023-03-28T10:31:39.430Z,1018.25
2023-03-28T10:32:39.379Z,1018.32
2023-03-28T10:33:39.308Z,1018.22
2023-03-28T10:34:39.289Z,1018.25
2023-03-28T10:35:39.323Z,1018.17
2023-03-28T10:36:39.272Z,1018.29
2023-03-28T10:37:39.260Z,1018.21
2023-03-28T10:38:39.249Z,1018.24
2023-03-28T10:39:39.270Z,1018.21
2023-03-28T10:40:39.257Z,1018.19
2023-03-28T10:41:39.213Z,1018.12
2023-03-28T10:42:39.212Z,1018.29
2023-03-28T10:43:39.213Z,1018.16
2023-03-28T10:44:39.211Z,1018.18
2023-03-28T10:45:39.170Z,1018.16
2023-03-28T10:46:39.216Z,1018.21
2023-03-28T10:47:39.182Z,1018.21
2023-03-28T10:48:39.400Z,1018.17
2023-03-28T10:49:39.134Z,1018.19
2023-03-28T10:50:39.124Z,1018.26
2023-03-28T10:51:39.103Z,1018.26
2023-03-28T10:52:39.098Z,1018.31
2023-03-28T10:53:39.078Z,1018.19
2023-03-28T10:54:39.065Z,1018.24
2023-03-28T10:55:39.181Z,1018.26
2023-03-28T10:56:39.293Z,1018.20
2023-03-28T10:57:39.035Z,1018.26
2023-03-28T10:58:39.030Z,1018.21
2023-03-28T10:59:39.014Z,1018.21
2023-03-28T11:00:39.002Z,1018.23
2023-03-28T11:01:39.012Z,1018.28
2023-03-28T11:02:39.109Z,1018.31
2023-03-28T11:03:39.045Z,1018.30
2023-03-28T11:04:38.950Z,1018.37
2023-03-28T11:05:38.943Z,1018.31
2023-03-28T11:06:38.934Z,1018.26
2023-03-28T11:07:38.923Z,1018.28
2023-03-28T11:08:38.917Z,1018.23
2023-03-28T11:09:38.907Z,1018.30
2023-03-28T11:10:38.885Z,1018.31
2023-03-28T11:11:38.911Z,1018.17
2023-03-28T11:12:51.299Z,1018.35
2023-03-28T11:13:38.851Z,1018.24
2023-03-28T11:14:38.839Z,1018.18
2023-03-28T11:15:38.830Z,1018.25
2023-03-28T11:16:38.871Z,1018.30
2023-03-28T11:17:38.834Z,1018.36
2023-03-28T11:18:38.795Z,1018.40
2023-03-28T11:19:38.781Z,1018.35
2023-03-28T11:20:38.778Z,1018.33
2023-03-28T11:21:38.774Z,1018.34
2023-03-28T11:22:38.750Z,1018.34
2023-03-28T11:23:38.987Z,1018.34
2023-03-28T11:24:38.730Z,1018.35
2023-03-28T11:25:38.722Z,1018.40
2023-03-28T11:26:38.708Z,1018.36
2023-03-28T11:27:38.719Z,1018.37
2023-03-28T11:28:38.685Z,1018.43
2023-03-28T11:29:43.229Z,1018.42
2023-03-28T11:30:38.664Z,1018.30
2023-03-28T11:31:38.686Z,1018.46
2023-03-28T11:32:38.662Z,1018.43
2023-03-28T11:33:38.637Z,1018.49
2023-03-28T11:34:39.697Z,1018.39
2023-03-28T11:35:38.714Z,1018.50
2023-03-28T11:36:38.593Z,1018.52
2023-03-28T11:37:38.581Z,1018.37
2023-03-28T11:38:38.570Z,1018.35
2023-03-28T11:39:38.561Z,1018.40
2023-03-28T11:40:38.556Z,1018.34
2023-03-28T11:41:38.537Z,1018.35
2023-03-28T11:42:38.526Z,1018.29
2023-03-28T11:43:38.543Z,1018.25
2023-03-28T11:44:38.507Z,1018.28
2023-03-28T11:45:50.341Z,1018.26
2023-03-28T11:46:38.528Z,1018.34
2023-03-28T11:47:38.514Z,1018.39
2023-03-28T11:48:38.458Z,1018.45
2023-03-28T11:49:38.458Z,1018.44
2023-03-28T11:50:38.439Z,1018.39
2023-03-28T11:51:38.425Z,1018.45
2023-03-28T11:52:38.418Z,1018.35
2023-03-28T11:53:38.403Z,1018.26
2023-03-28T11:54:38.391Z,1018.30
2023-03-28T11:55:38.382Z,1018.29
2023-03-28T11:56:38.400Z,1018.26
2023-03-28T11:57:38.358Z,1018.14
2023-03-28T11:58:38.364Z,1018.17
2023-03-28T11:59:38.361Z,1018.32
2023-03-28T12:00:40.160Z,1018.33
2023-03-28T12:01:38.359Z,1018.30
2023-03-28T12:02:38.399Z,1018.37
2023-03-28T12:03:38.350Z,1018.36
2023-03-28T12:04:38.275Z,1018.33
2023-03-28T12:05:38.268Z,1018.30